createdAt,value
2023-01-28T00:01:19.747Z,-0.40
2023-01-28T00:03:51.325Z,-0.50
2023-01-28T00:06:19.034Z,-0.50
2023-01-28T00:08:46.124Z,-0.50
2023-01-28T00:11:14.052Z,-0.50
2023-01-28T00:13:41.682Z,-0.50
2023-01-28T00:16:09.680Z,-0.50
2023-01-28T00:18:37.034Z,-0.50
2023-01-28T00:21:30.817Z,-0.50
2023-01-28T00:23:57.819Z,-0.50
2023-01-28T00:26:25.351Z,-0.50
2023-01-28T00:28:52.059Z,-0.50
2023-01-28T00:31:21.962Z,-0.50
2023-01-28T00:33:50.743Z,-0.40
2023-01-28T00:36:19.247Z,-0.40
2023-01-28T00:38:56.367Z,-0.40
2023-01-28T00:41:25.370Z,-0.40
2023-01-28T00:43:53.047Z,-0.40
2023-01-28T00:46:21.406Z,-0.30
2023-01-28T00:48:48.169Z,-0.30
2023-01-28T00:51:17.393Z,-0.30
2023-01-28T00:53:44.794Z,-0.30
2023-01-28T00:56:13.806Z,-0.30
2023-01-28T00:58:41.184Z,-0.30
2023-01-28T01:01:19.822Z,-0.30
2023-01-28T01:03:47.397Z,-0.30
2023-01-28T01:06:16.164Z,-0.20
2023-01-28T01:08:50.645Z,-0.20
2023-01-28T01:11:17.953Z,-0.20
2023-01-28T01:13:45.155Z,-0.30
2023-01-28T01:16:16.016Z,-0.30
2023-01-28T01:18:43.379Z,-0.30
2023-01-28T01:21:12.439Z,-0.40
2023-01-28T01:23:39.966Z,-0.40
2023-01-28T01:26:07.205Z,-0.30
2023-01-28T01:28:34.200Z,-0.40
2023-01-28T01:31:02.896Z,-0.40
2023-01-28T01:33:30.596Z,-0.50
2023-01-28T01:35:58.444Z,-0.50
2023-01-28T01:38:25.535Z,-0.60
2023-01-28T01:40:52.397Z,-0.60
2023-01-28T01:43:21.309Z,-0.60
2023-01-28T01:45:58.528Z,-0.60
2023-01-28T01:48:32.771Z,-0.60
2023-01-28T01:51:05.057Z,-0.50
2023-01-28T01:53:32.845Z,-0.50
2023-01-28T01:56:04.697Z,-0.50
2023-01-28T01:58:35.908Z,-0.50
2023-01-28T02:01:03.083Z,-0.50
2023-01-28T02:03:41.581Z,-0.50
2023-01-28T02:06:09.123Z,-0.50
2023-01-28T02:08:35.993Z,-0.40
2023-01-28T02:11:06.658Z,-0.50
2023-01-28T02:13:39.546Z,-0.40
2023-01-28T02:16:07.497Z,-0.40
2023-01-28T02:18:34.606Z,-0.50
2023-01-28T02:21:40.671Z,-0.50
2023-01-28T02:24:44.524Z,-0.40
2023-01-28T02:27:50.897Z,-0.40
2023-01-28T02:30:25.418Z,-0.40
2023-01-28T02:32:57.734Z,-0.50
2023-01-28T02:35:47.826Z,-0.40
2023-01-28T02:38:24.479Z,-0.50
2023-01-28T02:41:02.617Z,-0.50
2023-01-28T02:43:35.371Z,-0.50
2023-01-28T02:46:43.901Z,-0.50
2023-01-28T02:49:15.076Z,-0.50
2023-01-28T02:52:42.582Z,-0.60
2023-01-28T02:55:22.471Z,-0.60
2023-01-28T02:58:06.457Z,-0.60
2023-01-28T03:00:43.443Z,-0.60
2023-01-28T03:03:22.733Z,-0.60
2023-01-28T03:06:06.714Z,-0.60
2023-01-28T03:09:02.657Z,-0.60
2023-01-28T03:11:52.013Z,-0.60
2023-01-28T03:14:40.526Z,-0.50
2023-01-28T03:17:35.645Z,-0.50
2023-01-28T03:20:21.284Z,-0.50
2023-01-28T03:23:10.447Z,-0.60
2023-01-28T03:25:59.519Z,-0.50
2023-01-28T03:28:47.118Z,-0.50
2023-01-28T03:31:35.584Z,-0.50
2023-01-28T03:34:23.347Z,-0.50
2023-01-28T03:36:50.673Z,-0.40
2023-01-28T03:39:29.537Z,-0.40
2023-01-28T03:42:11.548Z,-0.40
2023-01-28T03:44:53.725Z,-0.40
2023-01-28T03:47:25.842Z,-0.40
2023-01-28T03:49:55.098Z,-0.40
2023-01-28T03:52:24.538Z,-0.40
2023-01-28T03:54:52.876Z,-0.40
2023-01-28T03:57:22.494Z,-0.40
2023-01-28T03:59:52.748Z,-0.40
2023-01-28T04:02:21.593Z,-0.40
2023-01-28T04:04:50.083Z,-0.40
2023-01-28T04:07:17.080Z,-0.40
2023-01-28T04:09:44.507Z,-0.40
2023-01-28T04:12:11.589Z,-0.40
2023-01-28T04:14:40.048Z,-0.40
2023-01-28T04:17:10.594Z,-0.40
2023-01-28T04:19:38.686Z,-0.40
2023-01-28T04:22:07.442Z,-0.40
2023-01-28T04:24:34.289Z,-0.40
2023-01-28T04:27:01.213Z,-0.40
2023-01-28T04:29:27.875Z,-0.40
2023-01-28T04:31:54.588Z,-0.40
2023-01-28T04:34:21.463Z,-0.40
2023-01-28T04:36:48.129Z,-0.50
2023-01-28T04:39:15.061Z,-0.50
2023-01-28T04:41:41.698Z,-0.50
2023-01-28T04:44:08.635Z,-0.50
2023-01-28T04:46:35.523Z,-0.40
2023-01-28T04:49:03.451Z,-0.40
2023-01-28T04:51:30.574Z,-0.40
2023-01-28T04:53:57.210Z,-0.40
2023-01-28T04:56:23.886Z,-0.40
2023-01-28T04:58:50.789Z,-0.30
2023-01-28T05:01:17.484Z,-0.30
2023-01-28T05:03:44.193Z,-0.30
2023-01-28T05:06:11.265Z,-0.30
2023-01-28T05:08:37.926Z,-0.30
2023-01-28T05:11:04.819Z,-0.30
2023-01-28T05:13:31.735Z,-0.30
2023-01-28T05:15:58.367Z,-0.30
2023-01-28T05:18:25.328Z,-0.40
2023-01-28T05:20:51.974Z,-0.40
2023-01-28T05:23:18.845Z,-0.40
2023-01-28T05:25:45.851Z,-0.50
2023-01-28T05:28:12.516Z,-0.40
2023-01-28T05:30:40.813Z,-0.40
2023-01-28T05:33:08.049Z,-0.40
2023-01-28T05:35:36.331Z,-0.40
2023-01-28T05:38:03.584Z,-0.40
2023-01-28T05:40:30.520Z,-0.40
2023-01-28T05:42:57.188Z,-0.40
2023-01-28T05:45:23.913Z,-0.30
2023-01-28T05:47:50.867Z,-0.30
2023-01-28T05:50:17.967Z,-0.40
2023-01-28T05:52:44.822Z,-0.40
2023-01-28T05:55:11.816Z,-0.40
2023-01-28T05:57:38.551Z,-0.40
2023-01-28T06:00:06.131Z,-0.40
2023-01-28T06:02:33.479Z,-0.40
2023-01-28T06:05:00.497Z,-0.30
2023-01-28T06:07:27.561Z,-0.30
2023-01-28T06:09:54.310Z,-0.40
2023-01-28T06:12:25.054Z,-0.40
2023-01-28T06:14:51.710Z,-0.40
2023-01-28T06:17:18.616Z,-0.40
2023-01-28T06:19:45.258Z,-0.40
2023-01-28T06:22:12.147Z,-0.50
2023-01-28T06:24:38.792Z,-0.40
2023-01-28T06:27:05.443Z,-0.50
2023-01-28T06:29:32.376Z,-0.40
2023-01-28T06:31:59.092Z,-0.50
2023-01-28T06:34:25.969Z,-0.50
2023-01-28T06:36:53.693Z,-0.40
2023-01-28T06:39:24.155Z,-0.50
2023-01-28T06:41:50.838Z,-0.50
2023-01-28T06:44:17.815Z,-0.50
2023-01-28T06:46:44.494Z,-0.50
2023-01-28T06:49:11.375Z,-0.50
2023-01-28T06:51:37.990Z,-0.50
2023-01-28T06:54:04.871Z,-0.50
2023-01-28T06:56:31.816Z,-0.50
2023-01-28T06:58:58.451Z,-0.50
2023-01-28T07:01:25.142Z,-0.50
2023-01-28T07:03:52.042Z,-0.50
2023-01-28T07:06:18.932Z,-0.50
2023-01-28T07:08:45.635Z,-0.50
2023-01-28T07:11:12.250Z,-0.50
2023-01-28T07:13:39.370Z,-0.60
2023-01-28T07:16:06.713Z,-0.60
2023-01-28T07:18:33.474Z,-0.50
2023-01-28T07:21:00.359Z,-0.50
2023-01-28T07:23:29.036Z,-0.60
2023-01-28T07:25:55.805Z,-0.60
2023-01-28T07:28:22.731Z,-0.70
2023-01-28T07:30:53.264Z,-0.70
2023-01-28T07:33:20.527Z,-0.70
2023-01-28T07:35:48.563Z,-0.60
2023-01-28T07:38:15.257Z,-0.70
2023-01-28T07:40:48.532Z,-0.60
2023-01-28T07:43:15.173Z,-0.60
2023-01-28T07:45:42.066Z,-0.60
2023-01-28T07:48:11.885Z,-0.60
2023-01-28T07:50:39.095Z,-0.70
2023-01-28T07:53:08.636Z,-0.70
2023-01-28T07:55:36.057Z,-0.70
2023-01-28T07:58:06.084Z,-0.60
2023-01-28T08:00:35.917Z,-0.60
2023-01-28T08:03:05.987Z,-0.60
2023-01-28T08:05:44.209Z,-0.60
2023-01-28T08:08:11.343Z,-0.50
2023-01-28T08:10:38.627Z,-0.50
2023-01-28T08:13:06.587Z,-0.50
2023-01-28T08:15:35.388Z,-0.50
2023-01-28T08:18:03.520Z,-0.50
2023-01-28T08:20:30.813Z,-0.50
2023-01-28T08:23:12.288Z,-0.40
2023-01-28T08:25:39.120Z,-0.40
2023-01-28T08:28:09.776Z,-0.30
2023-01-28T08:30:39.113Z,-0.20
2023-01-28T08:33:07.556Z,-0.30
2023-01-28T08:35:34.851Z,-0.20
2023-01-28T08:38:03.937Z,-0.10
2023-01-28T08:40:31.002Z,-0.20
2023-01-28T08:42:58.109Z,-0.10
2023-01-28T08:45:28.000Z,-0.10
2023-01-28T08:48:06.576Z,-0.10
2023-01-28T08:50:36.587Z,-0.20
2023-01-28T08:53:09.931Z,-0.20
2023-01-28T08:55:37.094Z,-0.20
2023-01-28T08:58:05.651Z,-0.10
2023-01-28T09:00:33.364Z,-0.10
2023-01-28T09:03:00.323Z,-0.10
2023-01-28T09:05:27.077Z,-0.30
2023-01-28T09:07:53.745Z,-0.30
2023-01-28T09:10:20.582Z,-0.30
2023-01-28T09:12:47.266Z,-0.20
2023-01-28T09:15:14.192Z,-0.20
2023-01-28T09:17:41.075Z,-0.10
2023-01-28T09:20:46.101Z,0.00
2023-01-28T09:23:13.613Z,-0.10
2023-01-28T09:25:40.620Z,-0.20
2023-01-28T09:28:07.635Z,-0.20
2023-01-28T09:30:37.254Z,-0.10
2023-01-28T09:33:04.402Z,-0.10
2023-01-28T09:35:31.367Z,-0.10
2023-01-28T09:37:59.029Z,-0.10
2023-01-28T09:40:51.031Z,0.00
2023-01-28T09:43:41.012Z,0.20
2023-01-28T09:46:13.189Z,0.30
2023-01-28T09:48:44.463Z,0.40
2023-01-28T09:51:37.480Z,0.40
2023-01-28T09:54:21.182Z,0.60
2023-01-28T09:56:52.023Z,0.70
2023-01-28T09:59:21.470Z,0.80
2023-01-28T10:02:04.751Z,0.80
2023-01-28T10:05:05.156Z,0.80
2023-01-28T10:07:47.314Z,0.80
2023-01-28T10:10:25.919Z,0.60
2023-01-28T10:13:23.176Z,0.50
2023-01-28T10:19:37.474Z,0.30
2023-01-28T10:22:12.880Z,0.40
2023-01-28T10:24:45.115Z,0.40
2023-01-28T10:27:19.182Z,0.50
2023-01-28T10:29:49.876Z,0.50
2023-01-28T10:32:32.198Z,0.50
2023-01-28T10:35:03.051Z,0.40
2023-01-28T10:37:34.355Z,0.30
2023-01-28T10:40:04.276Z,0.40
2023-01-28T10:42:32.337Z,0.40
2023-01-28T10:45:03.174Z,0.60
2023-01-28T10:47:38.402Z,0.60
2023-01-28T10:50:06.494Z,0.60
2023-01-28T10:52:33.391Z,0.60
2023-01-28T10:55:05.592Z,0.70
2023-01-28T10:57:41.471Z,0.70
2023-01-28T11:00:20.323Z,0.50
2023-01-28T11:02:49.798Z,0.60
2023-01-28T11:05:28.506Z,0.70
2023-01-28T11:08:15.548Z,0.80
2023-01-28T11:10:43.578Z,1.00
2023-01-28T11:13:19.571Z,1.00
2023-01-28T11:15:47.520Z,1.10
2023-01-28T11:18:19.493Z,1.20
2023-01-28T11:21:01.300Z,1.20
2023-01-28T11:23:33.535Z,1.20
2023-01-28T11:26:06.509Z,1.20
2023-01-28T11:28:34.911Z,1.20
2023-01-28T11:31:03.563Z,1.10
2023-01-28T11:33:43.162Z,1.10
2023-01-28T11:36:36.183Z,1.00
2023-01-28T11:39:22.360Z,1.00
2023-01-28T11:41:49.338Z,0.90
2023-01-28T11:44:20.800Z,1.00
2023-01-28T11:47:10.909Z,1.00
2023-01-28T11:49:46.549Z,0.90
2023-01-28T11:53:06.155Z,0.80
2023-01-28T11:55:45.920Z,0.70
2023-01-28T11:58:26.772Z,0.70
2023-01-28T12:01:31.062Z,0.70
2023-01-28T12:04:16.275Z,0.80
2023-01-28T12:06:51.228Z,0.80
2023-01-28T12:09:43.701Z,0.60
2023-01-28T12:12:19.455Z,0.50
2023-01-28T12:15:07.631Z,0.50
2023-01-28T12:17:56.989Z,0.40
2023-01-28T12:20:51.955Z,0.40
2023-01-28T12:23:39.707Z,0.40
2023-01-28T12:26:11.571Z,0.40
2023-01-28T12:28:59.027Z,0.40
2023-01-28T12:31:54.897Z,0.40
2023-01-28T12:34:37.386Z,0.30
2023-01-28T12:37:38.372Z,0.20
2023-01-28T12:40:20.465Z,0.30
2023-01-28T12:43:06.201Z,0.30
2023-01-28T12:45:51.032Z,0.30
2023-01-28T12:48:48.271Z,0.30
2023-01-28T12:51:24.921Z,0.30
2023-01-28T12:53:56.152Z,0.30
2023-01-28T12:56:33.570Z,0.40
2023-01-28T12:59:18.339Z,0.40
2023-01-28T13:01:51.292Z,0.20
2023-01-28T13:04:48.540Z,0.00
2023-01-28T13:07:27.410Z,0.10
2023-01-28T13:10:04.926Z,-0.10
2023-01-28T13:12:33.562Z,-0.10
2023-01-28T13:15:01.477Z,-0.20
2023-01-28T13:17:30.917Z,-0.10
2023-01-28T13:19:59.078Z,-0.10
2023-01-28T13:22:33.263Z,0.00
2023-01-28T13:25:23.854Z,0.10
2023-01-28T13:28:02.883Z,0.10
2023-01-28T13:30:32.082Z,0.10
2023-01-28T13:33:04.998Z,0.20
2023-01-28T13:35:38.932Z,0.10
2023-01-28T13:38:20.269Z,-0.10
2023-01-28T13:41:01.168Z,-0.20
2023-01-28T13:43:39.802Z,-0.30
2023-01-28T13:46:13.318Z,-0.40
2023-01-28T13:48:54.887Z,-0.30
2023-01-28T13:51:29.920Z,-0.20
2023-01-28T13:54:13.217Z,-0.20
2023-01-28T13:56:55.663Z,-0.20
2023-01-28T13:59:45.306Z,-0.30
2023-01-28T14:02:29.614Z,-0.30
2023-01-28T14:05:18.553Z,-0.40
2023-01-28T14:08:14.279Z,-0.50
2023-01-28T14:10:57.090Z,-0.50
2023-01-28T14:14:01.054Z,-0.60
2023-01-28T14:16:54.836Z,-0.80
2023-01-28T14:19:40.599Z,-0.90
2023-01-28T14:22:09.046Z,-0.90
2023-01-28T14:24:38.397Z,-0.90
2023-01-28T14:27:20.312Z,-0.90
2023-01-28T14:29:50.777Z,-0.90
2023-01-28T14:32:22.195Z,-1.10
2023-01-28T14:34:49.190Z,-1.30
2023-01-28T14:37:19.496Z,-1.30
2023-01-28T14:39:52.239Z,-1.40
2023-01-28T14:42:25.948Z,-1.40
2023-01-28T14:45:05.927Z,-1.40
2023-01-28T14:48:02.874Z,-1.40
2023-01-28T14:50:55.503Z,-1.40
2023-01-28T14:53:52.629Z,-1.50
2023-01-28T14:56:46.319Z,-1.50
2023-01-28T14:59:25.028Z,-1.50
2023-01-28T15:01:57.102Z,-1.60
2023-01-28T15:04:28.855Z,-1.60
2023-01-28T15:06:55.976Z,-1.70
2023-01-28T15:09:23.827Z,-1.70
2023-01-28T15:11:54.845Z,-1.70
2023-01-28T15:14:32.438Z,-1.80
2023-01-28T15:16:59.981Z,-1.80
2023-01-28T15:19:35.585Z,-1.80
2023-01-28T15:22:07.287Z,-2.00
2023-01-28T15:24:35.731Z,-2.20
2023-01-28T15:27:03.486Z,-2.50
2023-01-28T15:29:36.359Z,-2.70
2023-01-28T15:32:04.858Z,-2.90
2023-01-28T15:34:32.565Z,-2.90
2023-01-28T15:37:01.070Z,-3.00
2023-01-28T15:40:00.427Z,-3.10
2023-01-28T15:42:29.438Z,-3.00
2023-01-28T15:45:00.107Z,-3.00
2023-01-28T15:47:32.470Z,-3.00
2023-01-28T15:50:07.884Z,-3.10
2023-01-28T15:52:41.028Z,-3.10
2023-01-28T15:55:27.053Z,-3.00
2023-01-28T15:57:57.934Z,-3.10
2023-01-28T16:00:25.778Z,-3.00
2023-01-28T16:02:55.122Z,-3.00
2023-01-28T16:05:35.407Z,-3.00
2023-01-28T16:08:10.872Z,-3.00
2023-01-28T16:10:38.480Z,-3.00
2023-01-28T16:13:14.260Z,-3.00
2023-01-28T16:15:47.331Z,-2.90
2023-01-28T16:18:39.095Z,-3.00
2023-01-28T16:21:10.294Z,-2.90
2023-01-28T16:23:39.482Z,-2.90
2023-01-28T16:26:27.916Z,-2.90
2023-01-28T16:28:54.676Z,-2.90
2023-01-28T16:31:21.550Z,-2.90
2023-01-28T16:33:48.586Z,-2.80
2023-01-28T16:36:19.095Z,-2.90
2023-01-28T16:38:46.273Z,-3.00
2023-01-28T16:41:20.128Z,-3.20
2023-01-28T16:43:46.795Z,-3.30
2023-01-28T16:46:13.752Z,-3.40
2023-01-28T16:48:40.423Z,-3.50
2023-01-28T16:51:10.769Z,-3.50
2023-01-28T16:53:37.941Z,-3.50
2023-01-28T16:56:04.941Z,-3.50
2023-01-28T16:58:31.669Z,-3.40
2023-01-28T17:00:58.365Z,-3.40
2023-01-28T17:03:25.164Z,-3.40
2023-01-28T17:05:51.894Z,-3.40
2023-01-28T17:08:18.851Z,-3.50
2023-01-28T17:10:45.779Z,-3.50
2023-01-28T17:13:12.393Z,-3.50
2023-01-28T17:15:39.375Z,-3.50
2023-01-28T17:18:06.092Z,-3.50
2023-01-28T17:20:37.332Z,-3.50
2023-01-28T17:23:06.404Z,-3.50
2023-01-28T17:25:37.802Z,-3.40
2023-01-28T17:28:05.082Z,-3.40
2023-01-28T17:30:32.606Z,-3.30
2023-01-28T17:32:59.545Z,-3.30
2023-01-28T17:35:26.429Z,-3.30
2023-01-28T17:37:54.614Z,-3.30
2023-01-28T17:40:22.584Z,-3.30
2023-01-28T17:42:49.265Z,-3.30
2023-01-28T17:45:17.173Z,-3.30
2023-01-28T17:47:44.422Z,-3.30
2023-01-28T17:50:11.909Z,-3.30
2023-01-28T17:52:38.969Z,-3.30
2023-01-28T17:55:06.296Z,-3.40
2023-01-28T17:57:32.941Z,-3.50
2023-01-28T17:59:59.566Z,-3.50
2023-01-28T18:02:26.240Z,-3.60
2023-01-28T18:04:57.116Z,-3.70
2023-01-28T18:07:23.818Z,-3.80
2023-01-28T18:09:50.459Z,-3.80
2023-01-28T18:12:17.403Z,-3.90
2023-01-28T18:14:44.310Z,-4.00
2023-01-28T18:17:11.411Z,-4.00
2023-01-28T18:19:38.041Z,-4.00
2023-01-28T18:22:04.895Z,-4.00
2023-01-28T18:24:32.260Z,-3.90
2023-01-28T18:27:01.172Z,-3.80
2023-01-28T18:29:34.870Z,-3.80
2023-01-28T18:32:01.864Z,-3.80
2023-01-28T18:34:31.767Z,-3.70
2023-01-28T18:36:59.118Z,-3.70
2023-01-28T18:39:39.764Z,-3.70
2023-01-28T18:42:07.334Z,-3.70
2023-01-28T18:44:34.030Z,-3.60
2023-01-28T18:47:00.919Z,-3.60
2023-01-28T18:49:27.547Z,-3.70
2023-01-28T18:51:54.602Z,-3.80
2023-01-28T18:54:21.385Z,-3.90
2023-01-28T18:56:48.722Z,-3.90
2023-01-28T18:59:15.904Z,-3.90
2023-01-28T19:01:43.507Z,-3.90
2023-01-28T19:04:10.617Z,-3.90
2023-01-28T19:06:37.543Z,-3.90
2023-01-28T19:09:08.355Z,-3.90
2023-01-28T19:11:35.729Z,-3.90
2023-01-28T19:14:02.916Z,-4.00
2023-01-28T19:16:30.601Z,-4.00
2023-01-28T19:19:00.280Z,-4.00
2023-01-28T19:21:28.905Z,-4.00
2023-01-28T19:23:58.460Z,-4.00
2023-01-28T19:26:27.484Z,-4.00
2023-01-28T19:28:54.700Z,-4.00
2023-01-28T19:31:22.498Z,-4.00
2023-01-28T19:33:53.462Z,-3.90
2023-01-28T19:36:20.066Z,-3.90
2023-01-28T19:38:46.672Z,-3.90
2023-01-28T19:41:16.394Z,-3.90
2023-01-28T19:43:43.694Z,-3.90
2023-01-28T19:46:14.643Z,-3.90
2023-01-28T19:48:41.323Z,-3.90
2023-01-28T19:51:09.117Z,-3.90
2023-01-28T19:53:37.189Z,-3.90
2023-01-28T19:56:07.533Z,-3.80
2023-01-28T19:58:39.376Z,-3.90
2023-01-28T20:01:09.100Z,-3.90
2023-01-28T20:03:36.079Z,-4.00
2023-01-28T20:06:04.955Z,-4.00
2023-01-28T20:08:32.421Z,-4.00
2023-01-28T20:11:08.018Z,-4.00
2023-01-28T20:13:35.965Z,-4.00
2023-01-28T20:16:07.559Z,-4.00
2023-01-28T20:18:34.829Z,-4.00
2023-01-28T20:21:02.211Z,-4.00
2023-01-28T20:23:28.874Z,-4.10
2023-01-28T20:25:58.409Z,-4.10
2023-01-28T20:28:26.246Z,-4.00
2023-01-28T20:30:53.761Z,-4.00
2023-01-28T20:33:21.201Z,-4.00
2023-01-28T20:35:48.163Z,-4.00
2023-01-28T20:38:15.203Z,-4.10
2023-01-28T20:40:46.331Z,-4.20
2023-01-28T20:43:12.982Z,-4.20
2023-01-28T20:45:39.646Z,-4.20
2023-01-28T20:48:06.795Z,-4.20
2023-01-28T20:50:34.577Z,-4.10
2023-01-28T20:53:11.931Z,-4.10
2023-01-28T20:55:38.722Z,-4.10
2023-01-28T20:58:05.407Z,-4.00
2023-01-28T21:00:32.298Z,-4.00
2023-01-28T21:02:58.953Z,-4.00
2023-01-28T21:05:25.656Z,-4.00
2023-01-28T21:07:52.539Z,-4.00
2023-01-28T21:10:19.583Z,-3.90
2023-01-28T21:12:46.361Z,-3.90
2023-01-28T21:15:13.005Z,-3.90
2023-01-28T21:17:39.906Z,-3.90
2023-01-28T21:20:07.309Z,-3.90
2023-01-28T21:22:34.167Z,-3.90
2023-01-28T21:25:03.060Z,-3.90
2023-01-28T21:27:30.995Z,-3.90
2023-01-28T21:29:57.656Z,-3.90
2023-01-28T21:32:27.340Z,-3.90
2023-01-28T21:34:54.517Z,-3.90
2023-01-28T21:37:22.526Z,-4.00
2023-01-28T21:39:50.570Z,-3.80
2023-01-28T21:42:17.307Z,-3.90
2023-01-28T21:44:44.255Z,-3.80
2023-01-28T21:47:10.983Z,-3.80
2023-01-28T21:49:37.941Z,-3.90
2023-01-28T21:52:06.503Z,-4.00
2023-01-28T21:54:33.996Z,-4.00
2023-01-28T21:57:00.734Z,-4.00
2023-01-28T21:59:30.929Z,-4.10
2023-01-28T22:02:09.772Z,-4.10
2023-01-28T22:04:39.421Z,-4.10
2023-01-28T22:07:08.667Z,-4.10
2023-01-28T22:09:36.241Z,-4.10
2023-01-28T22:12:05.385Z,-4.00
2023-01-28T22:14:32.641Z,-4.00
2023-01-28T22:16:59.451Z,-4.00
2023-01-28T22:19:26.349Z,-4.00
2023-01-28T22:21:53.340Z,-4.00
2023-01-28T22:24:24.907Z,-4.00
2023-01-28T22:26:53.358Z,-4.00
2023-01-28T22:29:21.714Z,-4.00
2023-01-28T22:31:49.766Z,-4.10
2023-01-28T22:34:17.433Z,-4.10
2023-01-28T22:36:44.414Z,-4.10
2023-01-28T22:39:14.025Z,-4.00
2023-01-28T22:41:42.113Z,-4.10
2023-01-28T22:44:09.082Z,-4.20
2023-01-28T22:46:36.336Z,-4.30
2023-01-28T22:49:03.592Z,-4.30
2023-01-28T22:51:32.696Z,-4.40
2023-01-28T22:53:59.740Z,-4.50
2023-01-28T22:56:28.571Z,-4.50
2023-01-28T22:58:56.784Z,-4.40
2023-01-28T23:01:23.708Z,-4.40
2023-01-28T23:03:51.590Z,-4.40
2023-01-28T23:06:20.627Z,-4.40
2023-01-28T23:08:49.110Z,-4.30
2023-01-28T23:11:25.225Z,-4.40
2023-01-28T23:14:21.557Z,-4.30
2023-01-28T23:17:08.105Z,-4.20
2023-01-28T23:19:53.965Z,-4.30
2023-01-28T23:22:41.706Z,-4.30
2023-01-28T23:25:09.468Z,-4.30
2023-01-28T23:27:36.542Z,-4.30
2023-01-28T23:30:04.162Z,-4.30
2023-01-28T23:32:30.944Z,-4.20
2023-01-28T23:34:57.636Z,-4.30
2023-01-28T23:37:24.551Z,-4.40
2023-01-28T23:39:51.304Z,-4.40
2023-01-28T23:42:23.969Z,-4.40
2023-01-28T23:44:50.698Z,-4.30
2023-01-28T23:47:18.797Z,-4.30
2023-01-28T23:49:45.897Z,-4.30
2023-01-28T23:52:12.621Z,-4.30
2023-01-28T23:54:39.615Z,-4.30
2023-01-28T23:57:06.375Z,-4.20
2023-01-28T23:59:33.092Z,-4.30
